This is the latest recevied weather packets stored in our database for station/object LKLN. If no packets are shown the sender has not sent any weather packets the latest 10 day(s).
| Time | Temp. | Humidity | Pressure | Rain* | Wind** | Luminosity | Snow |
|---|---|---|---|---|---|---|---|
| 1788454873 | 17.22° C | 88% | 1021 hPa | - | - | - | - |
| 1788453070 | 17.78° C | 77% | 1021 hPa | - | - | - | - |
| 1788451272 | 18.89° C | 72% | 1021 hPa | - | - | - | - |
| 1788449470 | 21.11° C | 56% | 1021 hPa | - | - | - | - |
| 1788447760 | 22.22° C | 49% | 1020 hPa | - | - | - | - |
| 1788445870 | 22.22° C | 49% | 1020 hPa | - | - | - | - |
| 1788444162 | 22.78° C | 46% | 1020 hPa | - | - | - | - |
| 1788442270 | 22.78° C | 43% | 1020 hPa | - | - | - | - |
| 1788440472 | 22.78° C | 40% | 1020 hPa | - | - | - | - |
| 1788438671 | 23.89° C | 38% | 1020 hPa | - | - | - | - |
| 1788436880 | 23.89° C | 36% | 1020 hPa | - | - | - | - |
| 1788435069 | 22.78° C | 38% | 1021 hPa | - | - | - | - |
| 1788433271 | 22.78° C | 38% | 1021 hPa | - | - | - | - |
| 1788431551 | 22.22° C | 40% | 1021 hPa | - | - | - | - |
| 1788429671 | 22.22° C | 40% | 1022 hPa | - | - | - | - |
| 1788427869 | 21.11° C | 43% | 1022 hPa | - | - | - | - |
| 1788426071 | 21.11° C | 43% | 1021 hPa | - | - | - | - |
| 1788424270 | 21.11° C | 46% | 1022 hPa | - | - | - | - |
| 1788422465 | 20° C | 49% | 1022 hPa | - | - | - | - |
| 1788420670 | 18.89° C | 52% | 1022 hPa | - | - | - | - |
| 1788418865 | 17.78° C | 63% | 1022 hPa | - | - | - | - |
| 1788417070 | 17.22° C | 67% | 1022 hPa | - | - | - | - |
| 1788415272 | 16.11° C | 72% | 1022 hPa | - | - | - | - |
| 1788413470 | 15° C | 82% | 1021 hPa | - | - | - | - |
| 1788411672 | 13.89° C | 87% | 1021 hPa | - | - | - | - |
* Rain since midnight (hover to see other rain measurements)
** Current wind speed in m/s (hover to see current wind gust speed)